createdAt,value
2022-08-22T00:01:21.266Z,17.94
2022-08-22T00:02:42.143Z,19.97
2022-08-22T00:02:49.119Z,19.38
2022-08-22T00:02:49.988Z,18.72
2022-08-22T00:02:58.750Z,18.58
2022-08-22T00:03:11.931Z,18.36
2022-08-22T00:03:58.422Z,17.85
2022-08-22T00:06:41.492Z,17.93
2022-08-22T00:09:29.661Z,17.34
2022-08-22T00:12:17.060Z,17.84
2022-08-22T00:14:56.654Z,17.90
2022-08-22T00:17:41.691Z,17.86
2022-08-22T00:20:17.219Z,17.85
2022-08-22T00:22:53.586Z,17.82
2022-08-22T00:25:42.135Z,17.81
2022-08-22T00:28:17.202Z,17.78
2022-08-22T00:30:58.435Z,17.77
2022-08-22T00:33:36.660Z,17.76
2022-08-22T00:36:16.577Z,17.73
2022-08-22T00:38:52.271Z,17.70
2022-08-22T00:41:42.610Z,17.65
2022-08-22T00:45:00.218Z,17.64
2022-08-22T00:47:58.307Z,17.56
2022-08-22T00:50:46.428Z,17.56
2022-08-22T00:53:41.229Z,17.53
2022-08-22T00:56:33.460Z,17.48
2022-08-22T00:59:23.093Z,17.44
2022-08-22T01:02:01.843Z,17.40
2022-08-22T01:04:49.703Z,17.39
2022-08-22T01:07:38.211Z,17.37
2022-08-22T01:10:24.791Z,17.35
2022-08-22T01:13:14.921Z,17.32
2022-08-22T01:15:46.301Z,17.32
2022-08-22T01:18:36.593Z,17.27
2022-08-22T01:21:53.984Z,17.20
2022-08-22T01:25:22.626Z,17.16
2022-08-22T01:28:36.425Z,17.05
2022-08-22T01:31:51.693Z,17.10
2022-08-22T01:35:00.949Z,17.05
2022-08-22T01:37:48.374Z,17.06
2022-08-22T01:40:57.191Z,16.99
2022-08-22T01:44:00.155Z,17.03
2022-08-22T01:46:37.507Z,16.91
2022-08-22T01:49:14.874Z,16.89
2022-08-22T01:51:51.834Z,16.88
2022-08-22T01:54:36.166Z,16.96
2022-08-22T01:57:09.000Z,17.01
2022-08-22T01:59:43.961Z,16.82
2022-08-22T02:02:33.224Z,16.99
2022-08-22T02:05:08.092Z,17.00
2022-08-22T02:07:50.081Z,17.02
2022-08-22T02:10:26.916Z,17.05
2022-08-22T02:13:06.965Z,16.94
2022-08-22T02:15:53.072Z,17.00
2022-08-22T02:18:31.186Z,16.99
2022-08-22T02:21:07.283Z,16.96
2022-08-22T02:23:52.245Z,17.03
2022-08-22T02:26:30.543Z,17.04
2022-08-22T02:29:07.390Z,17.05
2022-08-22T02:31:44.666Z,17.04
2022-08-22T02:34:29.657Z,16.91
2022-08-22T02:37:10.270Z,17.06
2022-08-22T02:39:46.974Z,17.07
2022-08-22T02:42:27.932Z,17.06
2022-08-22T02:45:13.811Z,17.08
2022-08-22T02:47:54.681Z,17.06
2022-08-22T02:50:35.026Z,17.04
2022-08-22T02:53:09.604Z,17.04
2022-08-22T02:55:49.289Z,17.08
2022-08-22T02:58:27.517Z,17.10
2022-08-22T03:01:26.102Z,17.06
2022-08-22T03:04:26.885Z,17.02
2022-08-22T03:07:12.468Z,17.04
2022-08-22T03:09:49.591Z,17.05
2022-08-22T03:12:32.179Z,17.09
2022-08-22T03:15:08.923Z,17.06
2022-08-22T03:17:48.204Z,17.02
2022-08-22T03:20:36.520Z,16.87
2022-08-22T03:23:12.934Z,16.97
2022-08-22T03:25:50.313Z,16.99
2022-08-22T03:28:26.533Z,16.87
2022-08-22T03:31:01.260Z,16.96
2022-08-22T03:33:32.646Z,16.96
2022-08-22T03:36:11.516Z,16.93
2022-08-22T03:38:50.258Z,16.93
2022-08-22T03:42:03.846Z,16.91
2022-08-22T03:45:04.095Z,16.88
2022-08-22T03:48:05.193Z,16.90
2022-08-22T03:51:05.976Z,16.84
2022-08-22T03:53:56.773Z,16.80
2022-08-22T03:56:45.577Z,16.76
2022-08-22T03:59:49.926Z,16.80
2022-08-22T04:02:43.209Z,16.71
2022-08-22T04:05:41.367Z,16.18
2022-08-22T04:08:51.362Z,16.69
2022-08-22T04:11:40.127Z,16.68
2022-08-22T04:14:29.026Z,16.62
2022-08-22T04:17:27.501Z,16.63
2022-08-22T04:20:34.987Z,16.57
2022-08-22T04:23:32.396Z,16.58
2022-08-22T04:26:12.142Z,16.09
2022-08-22T04:28:49.763Z,16.58
2022-08-22T04:31:26.138Z,16.58
2022-08-22T04:34:03.060Z,16.61
2022-08-22T04:36:39.641Z,16.54
2022-08-22T04:39:18.871Z,16.54
2022-08-22T04:41:53.350Z,16.04
2022-08-22T04:44:28.119Z,16.56
2022-08-22T04:47:08.228Z,16.40
2022-08-22T04:49:41.591Z,16.45
2022-08-22T04:52:29.410Z,16.62
2022-08-22T04:55:09.649Z,16.62
2022-08-22T04:57:51.758Z,16.62
2022-08-22T05:00:20.863Z,16.57
2022-08-22T05:02:53.879Z,16.62
2022-08-22T05:05:28.155Z,16.58
2022-08-22T05:07:59.773Z,16.57
2022-08-22T05:10:34.009Z,16.53
2022-08-22T05:13:07.444Z,16.57
2022-08-22T05:15:39.729Z,16.63
2022-08-22T05:18:15.847Z,16.65
2022-08-22T05:20:49.356Z,16.65
2022-08-22T05:23:21.707Z,16.64
2022-08-22T05:25:55.813Z,16.65
2022-08-22T05:28:33.782Z,16.63
2022-08-22T05:31:08.069Z,16.63
2022-08-22T05:33:42.136Z,16.64
2022-08-22T05:36:15.969Z,16.65
2022-08-22T05:38:50.427Z,16.65
2022-08-22T05:41:23.783Z,16.69
2022-08-22T05:43:54.929Z,16.71
2022-08-22T05:46:27.139Z,16.72
2022-08-22T05:48:59.964Z,16.74
2022-08-22T05:51:39.053Z,16.74
2022-08-22T05:54:14.803Z,16.65
2022-08-22T05:56:53.301Z,16.64
2022-08-22T05:59:27.318Z,16.66
2022-08-22T06:02:05.290Z,16.69
2022-08-22T06:04:50.098Z,16.69
2022-08-22T06:07:25.295Z,16.70
2022-08-22T06:10:13.654Z,16.71
2022-08-22T06:12:53.485Z,16.76
2022-08-22T06:15:28.929Z,16.77
2022-08-22T06:18:01.972Z,16.04
2022-08-22T06:20:36.161Z,16.85
2022-08-22T06:23:09.122Z,16.87
2022-08-22T06:25:43.099Z,16.90
2022-08-22T06:28:17.781Z,16.96
2022-08-22T06:30:47.755Z,17.00
2022-08-22T06:33:23.173Z,17.08
2022-08-22T06:36:13.730Z,17.18
2022-08-22T06:38:58.871Z,17.46
2022-08-22T06:41:35.077Z,17.63
2022-08-22T06:44:06.759Z,17.80
2022-08-22T06:46:38.916Z,18.07
2022-08-22T06:49:10.616Z,18.18
2022-08-22T06:51:40.513Z,18.37
2022-08-22T06:54:20.519Z,18.60
2022-08-22T06:56:55.326Z,18.92
2022-08-22T06:59:27.186Z,19.22
2022-08-22T07:02:03.478Z,19.43
2022-08-22T07:04:33.091Z,19.71
2022-08-22T07:07:03.403Z,19.84
2022-08-22T07:09:37.351Z,20.08
2022-08-22T07:12:18.392Z,20.18
2022-08-22T07:14:50.757Z,20.35
2022-08-22T07:17:23.600Z,20.36
2022-08-22T07:20:00.604Z,20.80
2022-08-22T07:22:33.150Z,21.02
2022-08-22T07:25:08.953Z,21.20
2022-08-22T07:27:56.173Z,21.25
2022-08-22T07:30:35.782Z,21.42
2022-08-22T07:33:25.995Z,21.64
2022-08-22T07:36:01.715Z,21.83
2022-08-22T07:38:42.752Z,22.03
2022-08-22T07:41:18.741Z,22.15
2022-08-22T07:43:51.658Z,22.11
2022-08-22T07:46:30.322Z,21.93
2022-08-22T07:49:09.534Z,22.08
2022-08-22T07:51:44.677Z,22.27
2022-08-22T07:54:17.021Z,22.57
2022-08-22T07:57:03.724Z,22.61
2022-08-22T07:59:36.130Z,22.38
2022-08-22T08:02:13.151Z,22.52
2022-08-22T08:04:43.566Z,22.66
2022-08-22T08:07:17.225Z,22.73
2022-08-22T08:09:51.727Z,22.95
2022-08-22T08:12:31.763Z,23.02
2022-08-22T08:15:04.184Z,22.94
2022-08-22T08:17:37.045Z,23.18
2022-08-22T08:20:11.179Z,23.08
2022-08-22T08:22:44.077Z,22.97
2022-08-22T08:25:17.216Z,23.13
2022-08-22T08:28:04.824Z,23.15
2022-08-22T08:30:38.536Z,23.38
2022-08-22T08:33:26.215Z,23.57
2022-08-22T08:36:03.212Z,23.81
2022-08-22T08:38:41.596Z,24.04
2022-08-22T08:41:49.100Z,24.27
2022-08-22T08:44:39.442Z,24.26
2022-08-22T08:47:24.591Z,24.32
2022-08-22T08:50:20.190Z,24.41
2022-08-22T08:53:17.574Z,24.40
2022-08-22T08:55:52.396Z,24.67
2022-08-22T08:58:35.380Z,24.79
2022-08-22T09:01:27.707Z,24.92
2022-08-22T09:04:19.891Z,25.32
2022-08-22T09:07:06.603Z,24.99
2022-08-22T09:09:56.931Z,25.30
2022-08-22T09:12:54.284Z,25.31
2022-08-22T09:15:58.631Z,25.45
2022-08-22T09:19:02.682Z,25.54
2022-08-22T09:22:14.613Z,25.76
2022-08-22T09:25:06.108Z,25.94
2022-08-22T09:27:39.300Z,26.00
2022-08-22T09:30:12.382Z,25.88
2022-08-22T09:32:58.249Z,25.54
2022-08-22T09:35:39.754Z,25.50
2022-08-22T09:38:31.194Z,25.72
2022-08-22T09:41:12.675Z,25.73
2022-08-22T09:43:48.907Z,25.31
2022-08-22T09:46:29.559Z,25.26
2022-08-22T09:49:06.688Z,24.68
2022-08-22T09:51:46.118Z,24.83
2022-08-22T09:54:22.920Z,25.32
2022-08-22T09:57:13.877Z,25.56
2022-08-22T09:59:58.202Z,24.79
2022-08-22T10:02:34.681Z,24.84
2022-08-22T10:05:40.912Z,25.39
2022-08-22T10:08:20.069Z,25.68
2022-08-22T10:11:11.374Z,25.84
2022-08-22T10:13:57.729Z,25.75
2022-08-22T10:17:04.593Z,25.61
2022-08-22T10:19:41.289Z,25.56
2022-08-22T10:22:34.219Z,25.87
2022-08-22T10:25:24.668Z,26.06
2022-08-22T10:28:10.621Z,26.09
2022-08-22T10:30:51.015Z,25.76
2022-08-22T10:33:29.873Z,25.33
2022-08-22T10:36:05.491Z,24.93
2022-08-22T10:38:43.986Z,24.78
2022-08-22T10:41:29.272Z,24.81
2022-08-22T10:44:04.469Z,25.49
2022-08-22T10:46:39.025Z,25.71
2022-08-22T10:49:20.556Z,25.75
2022-08-22T10:51:58.227Z,25.36
2022-08-22T10:54:39.504Z,25.90
2022-08-22T10:57:22.678Z,26.15
2022-08-22T11:00:02.904Z,26.09
2022-08-22T11:02:47.128Z,26.33
2022-08-22T11:05:28.475Z,26.46
2022-08-22T11:08:11.837Z,26.69
2022-08-22T11:10:52.293Z,26.88
2022-08-22T11:13:31.963Z,26.94
2022-08-22T11:16:09.170Z,26.76
2022-08-22T11:19:02.065Z,27.15
2022-08-22T11:21:46.254Z,27.21
2022-08-22T11:24:55.980Z,27.31
2022-08-22T11:27:38.085Z,27.58
2022-08-22T11:30:18.402Z,27.58
2022-08-22T11:33:14.666Z,27.18
2022-08-22T11:35:48.759Z,27.00
2022-08-22T11:38:32.690Z,26.94
2022-08-22T11:41:07.393Z,26.78
2022-08-22T11:43:52.034Z,26.59
2022-08-22T11:46:29.221Z,26.34
2022-08-22T11:49:16.063Z,26.21
2022-08-22T11:52:09.682Z,25.93
2022-08-22T11:55:09.300Z,25.88
2022-08-22T11:57:44.750Z,26.00
2022-08-22T12:00:33.415Z,26.98
2022-08-22T12:03:34.795Z,26.63
2022-08-22T12:06:09.678Z,26.10
2022-08-22T12:09:20.588Z,26.80
2022-08-22T12:12:20.197Z,26.51
2022-08-22T12:14:58.466Z,26.53
2022-08-22T12:18:12.738Z,26.75
2022-08-22T12:21:00.945Z,27.04
2022-08-22T12:23:55.855Z,27.07
2022-08-22T12:26:34.806Z,27.15
2022-08-22T12:29:23.340Z,27.28
2022-08-22T12:32:34.807Z,27.49
2022-08-22T12:35:30.252Z,27.45
2022-08-22T12:38:29.091Z,27.52
2022-08-22T12:41:14.382Z,27.66
2022-08-22T12:44:05.508Z,27.76
2022-08-22T12:46:49.376Z,27.88
2022-08-22T12:49:34.096Z,28.00
2022-08-22T12:52:19.751Z,27.89
2022-08-22T12:55:24.841Z,28.16
2022-08-22T12:58:08.101Z,27.72
2022-08-22T13:00:38.692Z,27.84
2022-08-22T13:03:11.370Z,27.70
2022-08-22T13:05:46.115Z,27.76
2022-08-22T13:08:32.185Z,28.12
2022-08-22T13:11:09.926Z,27.56
2022-08-22T13:13:56.247Z,27.45
2022-08-22T13:16:36.511Z,27.42
2022-08-22T13:19:13.478Z,27.59
2022-08-22T13:21:48.225Z,27.57
2022-08-22T13:24:38.592Z,27.62
2022-08-22T13:27:15.016Z,27.62
2022-08-22T13:29:52.609Z,27.70
2022-08-22T13:32:26.623Z,27.69
2022-08-22T13:34:59.448Z,27.74
2022-08-22T13:37:36.231Z,27.89
2022-08-22T13:40:11.526Z,27.87
2022-08-22T13:42:48.270Z,27.79
2022-08-22T13:45:25.593Z,27.79
2022-08-22T13:47:58.496Z,27.78
2022-08-22T13:50:30.120Z,27.87
2022-08-22T13:53:30.852Z,27.96
2022-08-22T13:56:07.582Z,27.89
2022-08-22T13:58:50.470Z,27.68
2022-08-22T14:01:34.793Z,27.53
2022-08-22T14:04:33.437Z,27.64
2022-08-22T14:07:25.471Z,27.78
2022-08-22T14:09:59.496Z,27.68
2022-08-22T14:12:50.066Z,27.65
2022-08-22T14:15:26.120Z,27.54
2022-08-22T14:18:11.837Z,27.79
2022-08-22T14:20:43.348Z,27.89
2022-08-22T14:23:17.638Z,27.68
2022-08-22T14:25:47.224Z,27.52
2022-08-22T14:28:27.450Z,27.70
2022-08-22T14:31:03.653Z,27.47
2022-08-22T14:33:39.969Z,27.48
2022-08-22T14:36:17.204Z,27.44
2022-08-22T14:38:51.928Z,27.46
2022-08-22T14:41:52.429Z,27.49
2022-08-22T14:44:26.535Z,27.35
2022-08-22T14:46:58.610Z,27.56
2022-08-22T14:49:38.261Z,27.46
2022-08-22T14:52:10.789Z,27.52
2022-08-22T14:54:51.145Z,27.38
2022-08-22T14:57:22.259Z,27.56
2022-08-22T14:59:54.096Z,27.56
2022-08-22T15:02:29.359Z,27.59
2022-08-22T15:05:13.106Z,27.20
2022-08-22T15:07:55.611Z,27.30
2022-08-22T15:10:31.729Z,26.99
2022-08-22T15:13:08.092Z,26.78
2022-08-22T15:15:53.416Z,26.69
2022-08-22T15:18:36.098Z,26.58
2022-08-22T15:21:10.345Z,26.44
2022-08-22T15:23:46.782Z,26.40
2022-08-22T15:26:25.530Z,26.45
2022-08-22T15:28:59.371Z,26.35
2022-08-22T15:31:28.501Z,26.39
2022-08-22T15:34:12.312Z,26.47
2022-08-22T15:37:09.073Z,26.39
2022-08-22T15:40:00.273Z,26.34
2022-08-22T15:42:35.876Z,26.40
2022-08-22T15:45:07.169Z,26.38
2022-08-22T15:47:40.267Z,26.42
2022-08-22T15:50:28.546Z,26.39
2022-08-22T15:53:14.545Z,26.18
2022-08-22T15:56:28.197Z,26.12
2022-08-22T15:59:29.654Z,26.33
2022-08-22T16:02:04.828Z,26.38
2022-08-22T16:04:47.279Z,26.23
2022-08-22T16:07:42.075Z,26.20
2022-08-22T16:10:29.339Z,26.02
2022-08-22T16:13:16.507Z,25.81
2022-08-22T16:16:01.896Z,26.15
2022-08-22T16:19:08.312Z,25.96
2022-08-22T16:22:06.674Z,26.11
2022-08-22T16:24:58.304Z,25.94
2022-08-22T16:27:30.591Z,25.92
2022-08-22T16:30:07.266Z,25.92
2022-08-22T16:32:37.602Z,25.92
2022-08-22T16:35:07.157Z,25.86
2022-08-22T16:37:48.051Z,25.82
2022-08-22T16:40:24.050Z,25.84
2022-08-22T16:43:14.461Z,25.83
2022-08-22T16:45:46.179Z,26.06
2022-08-22T16:48:24.734Z,25.68
2022-08-22T16:51:05.189Z,25.56
2022-08-22T16:54:10.610Z,25.49
2022-08-22T16:57:04.227Z,25.38
2022-08-22T16:59:47.662Z,25.43
2022-08-22T17:02:43.204Z,25.40
2022-08-22T17:05:20.799Z,25.13
2022-08-22T17:08:02.482Z,25.07
2022-08-22T17:10:49.231Z,24.33
2022-08-22T17:13:38.258Z,24.94
2022-08-22T17:16:39.357Z,24.84
2022-08-22T17:19:24.230Z,24.83
2022-08-22T17:21:58.860Z,24.62
2022-08-22T17:24:37.619Z,24.58
2022-08-22T17:27:22.301Z,24.52
2022-08-22T17:30:02.140Z,24.51
2022-08-22T17:32:42.750Z,24.57
2022-08-22T17:35:25.933Z,24.51
2022-08-22T17:38:08.640Z,24.43
2022-08-22T17:40:41.473Z,24.41
2022-08-22T17:43:49.228Z,24.54
2022-08-22T17:46:35.365Z,24.55
2022-08-22T17:49:20.393Z,24.45
2022-08-22T17:52:08.556Z,24.32
2022-08-22T17:54:41.670Z,24.32
2022-08-22T17:57:14.664Z,24.39
2022-08-22T17:59:50.792Z,24.25
2022-08-22T18:02:26.544Z,24.14
2022-08-22T18:05:06.947Z,24.07
2022-08-22T18:08:00.878Z,23.96
2022-08-22T18:10:39.017Z,23.93
2022-08-22T18:13:13.336Z,23.91
2022-08-22T18:15:48.490Z,23.87
2022-08-22T18:18:31.225Z,23.78
2022-08-22T18:21:08.235Z,22.91
2022-08-22T18:23:42.444Z,23.74
2022-08-22T18:26:25.658Z,23.58
2022-08-22T18:29:08.406Z,23.51
2022-08-22T18:31:49.396Z,23.14
2022-08-22T18:34:26.405Z,23.39
2022-08-22T18:37:04.831Z,23.33
2022-08-22T18:39:47.091Z,23.24
2022-08-22T18:42:28.145Z,23.19
2022-08-22T18:44:59.303Z,23.10
2022-08-22T18:47:32.105Z,23.11
2022-08-22T18:50:03.759Z,23.05
2022-08-22T18:52:42.869Z,23.05
2022-08-22T18:55:28.194Z,22.90
2022-08-22T18:58:21.931Z,22.87
2022-08-22T19:01:10.664Z,22.76
2022-08-22T19:04:00.437Z,22.72
2022-08-22T19:06:47.807Z,22.67
2022-08-22T19:09:55.985Z,22.54
2022-08-22T19:12:51.403Z,22.51
2022-08-22T19:15:35.261Z,22.36
2022-08-22T19:18:19.405Z,22.29
2022-08-22T19:21:47.277Z,22.25
2022-08-22T19:24:57.579Z,22.20
2022-08-22T19:27:31.557Z,22.18
2022-08-22T19:30:03.242Z,22.13
2022-08-22T19:33:00.379Z,22.07
2022-08-22T19:35:40.140Z,22.02
2022-08-22T19:38:10.734Z,21.94
2022-08-22T19:40:55.554Z,21.93
2022-08-22T19:43:35.927Z,21.88
2022-08-22T19:46:07.802Z,21.87
2022-08-22T19:48:46.831Z,21.79
2022-08-22T19:51:29.307Z,21.78
2022-08-22T19:54:21.474Z,21.71
2022-08-22T19:57:07.038Z,21.55
2022-08-22T19:59:59.588Z,21.64
2022-08-22T20:02:37.758Z,21.58
2022-08-22T20:05:28.748Z,21.61
2022-08-22T20:08:15.128Z,21.44
2022-08-22T20:10:55.130Z,21.43
2022-08-22T20:13:26.564Z,21.37
2022-08-22T20:16:07.887Z,21.19
2022-08-22T20:19:16.609Z,21.29
2022-08-22T20:21:53.876Z,21.20
2022-08-22T20:24:30.189Z,21.15
2022-08-22T20:27:13.990Z,20.95
2022-08-22T20:29:49.514Z,21.07
2022-08-22T20:32:23.451Z,21.05
2022-08-22T20:34:57.037Z,20.91
2022-08-22T20:38:02.860Z,20.97
2022-08-22T20:40:55.004Z,20.90
2022-08-22T20:43:29.615Z,20.87
2022-08-22T20:46:22.035Z,20.78
2022-08-22T20:48:57.318Z,20.74
2022-08-22T20:51:32.575Z,20.63
2022-08-22T20:54:10.345Z,20.60
2022-08-22T20:56:53.475Z,20.58
2022-08-22T20:59:30.201Z,20.60
2022-08-22T21:02:09.934Z,20.56
2022-08-22T21:04:53.901Z,20.58
2022-08-22T21:07:27.563Z,20.53
2022-08-22T21:10:22.325Z,20.53
2022-08-22T21:13:06.396Z,20.57
2022-08-22T21:15:38.635Z,20.58
2022-08-22T21:18:12.241Z,20.58
2022-08-22T21:20:42.873Z,19.84
2022-08-22T21:23:20.810Z,20.61
2022-08-22T21:25:58.502Z,20.57
2022-08-22T21:28:31.205Z,20.62
2022-08-22T21:31:01.807Z,19.87
2022-08-22T21:33:30.730Z,20.65
2022-08-22T21:36:01.775Z,20.58
2022-08-22T21:38:30.956Z,20.60
2022-08-22T21:41:05.476Z,19.91
2022-08-22T21:43:39.143Z,20.52
2022-08-22T21:46:09.484Z,20.56
2022-08-22T21:48:43.865Z,20.30
2022-08-22T21:51:31.821Z,20.54
2022-08-22T21:54:20.331Z,20.54
2022-08-22T21:56:54.133Z,20.49
2022-08-22T21:59:26.541Z,20.43
2022-08-22T22:02:36.581Z,20.39
2022-08-22T22:05:09.357Z,20.01
2022-08-22T22:07:41.330Z,20.23
2022-08-22T22:10:13.207Z,20.36
2022-08-22T22:12:44.283Z,20.38
2022-08-22T22:15:18.231Z,20.30
2022-08-22T22:17:47.554Z,20.31
2022-08-22T22:20:17.685Z,20.31
2022-08-22T22:22:49.042Z,20.19
2022-08-22T22:25:41.323Z,20.20
2022-08-22T22:28:11.425Z,20.18
2022-08-22T22:30:41.225Z,20.07
2022-08-22T22:33:10.384Z,20.12
2022-08-22T22:35:41.750Z,19.96
2022-08-22T22:38:15.107Z,20.02
2022-08-22T22:40:46.228Z,19.97
2022-08-22T22:43:15.595Z,19.95
2022-08-22T22:45:44.833Z,19.91
2022-08-22T22:48:23.783Z,19.90
2022-08-22T22:50:54.846Z,19.85
2022-08-22T22:53:33.880Z,19.78
2022-08-22T22:56:10.798Z,19.70
2022-08-22T22:58:41.412Z,19.71
2022-08-22T23:01:14.346Z,19.69
2022-08-22T23:03:45.044Z,19.68
2022-08-22T23:06:15.478Z,19.66
2022-08-22T23:08:47.392Z,19.64
2022-08-22T23:11:19.350Z,19.61
2022-08-22T23:13:49.823Z,19.57
2022-08-22T23:16:23.996Z,19.60
2022-08-22T23:18:54.063Z,19.53
2022-08-22T23:21:26.750Z,19.52
2022-08-22T23:23:58.843Z,19.51
2022-08-22T23:26:28.324Z,19.44
2022-08-22T23:28:58.566Z,19.37
2022-08-22T23:31:33.985Z,19.42
2022-08-22T23:34:08.085Z,19.40
2022-08-22T23:36:41.248Z,19.36
2022-08-22T23:39:12.607Z,19.34
2022-08-22T23:41:43.084Z,19.32
2022-08-22T23:44:15.253Z,19.27
2022-08-22T23:46:47.408Z,19.23
2022-08-22T23:49:17.129Z,19.21
2022-08-22T23:51:47.739Z,19.19
2022-08-22T23:54:19.466Z,18.74
2022-08-22T23:56:50.736Z,19.08
2022-08-22T23:59:22.696Z,19.09
